sensor_id;sensor_type;location;lat;lon;timestamp;P1;durP1;ratioP1;P2;durP2;ratioP2
14377;SDS011;7272;53.668;9.578;2022-07-29T00:02:14;1.40;;;1.30;;
14377;SDS011;7272;53.668;9.578;2022-07-29T00:05:16;2.13;;;1.57;;
14377;SDS011;7272;53.668;9.578;2022-07-29T00:08:18;2.10;;;1.20;;
14377;SDS011;7272;53.668;9.578;2022-07-29T00:11:22;1.73;;;1.60;;
14377;SDS011;7272;53.668;9.578;2022-07-29T00:14:26;1.37;;;1.30;;
14377;SDS011;7272;53.668;9.578;2022-07-29T00:17:28;1.50;;;1.40;;
14377;SDS011;7272;53.668;9.578;2022-07-29T00:20:30;1.53;;;1.43;;
14377;SDS011;7272;53.668;9.578;2022-07-29T00:23:32;1.93;;;1.50;;
14377;SDS011;7272;53.668;9.578;2022-07-29T00:26:34;1.70;;;1.20;;
14377;SDS011;7272;53.668;9.578;2022-07-29T00:29:38;1.87;;;1.20;;
14377;SDS011;7272;53.668;9.578;2022-07-29T00:32:40;1.75;;;1.58;;
14377;SDS011;7272;53.668;9.578;2022-07-29T00:35:42;2.22;;;1.70;;
14377;SDS011;7272;53.668;9.578;2022-07-29T00:38:48;1.97;;;1.40;;
14377;SDS011;7272;53.668;9.578;2022-07-29T00:41:50;1.20;;;1.10;;
14377;SDS011;7272;53.668;9.578;2022-07-29T00:44:53;1.67;;;1.57;;
14377;SDS011;7272;53.668;9.578;2022-07-29T00:47:55;2.03;;;1.60;;
14377;SDS011;7272;53.668;9.578;2022-07-29T00:50:58;2.17;;;1.63;;
14377;SDS011;7272;53.668;9.578;2022-07-29T00:54:02;1.90;;;1.60;;
14377;SDS011;7272;53.668;9.578;2022-07-29T00:57:05;2.43;;;1.80;;
14377;SDS011;7272;53.668;9.578;2022-07-29T01:00:10;1.98;;;1.88;;
14377;SDS011;7272;53.668;9.578;2022-07-29T01:03:14;1.87;;;1.53;;
14377;SDS011;7272;53.668;9.578;2022-07-29T01:06:17;3.73;;;1.70;;
14377;SDS011;7272;53.668;9.578;2022-07-29T01:09:20;1.60;;;1.50;;
14377;SDS011;7272;53.668;9.578;2022-07-29T01:12:24;1.60;;;1.50;;
14377;SDS011;7272;53.668;9.578;2022-07-29T01:15:29;1.70;;;1.60;;
14377;SDS011;7272;53.668;9.578;2022-07-29T01:18:31;4.47;;;1.90;;
14377;SDS011;7272;53.668;9.578;2022-07-29T01:21:49;2.13;;;1.90;;
14377;SDS011;7272;53.668;9.578;2022-07-29T01:28:18;2.90;;;1.70;;
14377;SDS011;7272;53.668;9.578;2022-07-29T01:31:48;2.00;;;1.77;;
14377;SDS011;7272;53.668;9.578;2022-07-29T01:34:58;1.80;;;1.60;;
14377;SDS011;7272;53.668;9.578;2022-07-29T01:38:08;2.37;;;1.90;;
14377;SDS011;7272;53.668;9.578;2022-07-29T01:41:14;1.90;;;1.70;;
14377;SDS011;7272;53.668;9.578;2022-07-29T01:44:20;2.70;;;2.10;;
14377;SDS011;7272;53.668;9.578;2022-07-29T01:47:30;2.67;;;2.43;;
14377;SDS011;7272;53.668;9.578;2022-07-29T01:50:38;3.97;;;2.00;;
14377;SDS011;7272;53.668;9.578;2022-07-29T01:53:47;2.13;;;1.90;;
14377;SDS011;7272;53.668;9.578;2022-07-29T01:56:55;2.60;;;2.40;;
14377;SDS011;7272;53.668;9.578;2022-07-29T02:00:01;2.07;;;1.97;;
14377;SDS011;7272;53.668;9.578;2022-07-29T02:03:12;3.73;;;1.97;;
14377;SDS011;7272;53.668;9.578;2022-07-29T02:06:17;1.97;;;1.87;;
14377;SDS011;7272;53.668;9.578;2022-07-29T02:09:21;2.80;;;2.08;;
14377;SDS011;7272;53.668;9.578;2022-07-29T02:12:25;2.42;;;2.22;;
14377;SDS011;7272;53.668;9.578;2022-07-29T02:15:30;3.93;;;2.20;;
14377;SDS011;7272;53.668;9.578;2022-07-29T02:18:34;2.27;;;2.00;;
14377;SDS011;7272;53.668;9.578;2022-07-29T02:21:38;2.60;;;2.03;;
14377;SDS011;7272;53.668;9.578;2022-07-29T02:24:42;2.47;;;2.07;;
14377;SDS011;7272;53.668;9.578;2022-07-29T02:27:46;4.33;;;2.23;;
14377;SDS011;7272;53.668;9.578;2022-07-29T02:30:52;2.37;;;2.10;;
14377;SDS011;7272;53.668;9.578;2022-07-29T02:33:56;2.65;;;2.35;;
14377;SDS011;7272;53.668;9.578;2022-07-29T02:36:59;2.53;;;2.30;;
14377;SDS011;7272;53.668;9.578;2022-07-29T02:40:02;3.43;;;2.20;;
14377;SDS011;7272;53.668;9.578;2022-07-29T02:43:06;2.00;;;1.90;;
14377;SDS011;7272;53.668;9.578;2022-07-29T02:46:13;2.57;;;1.90;;
14377;SDS011;7272;53.668;9.578;2022-07-29T02:49:23;2.80;;;1.90;;
14377;SDS011;7272;53.668;9.578;2022-07-29T02:52:37;3.00;;;2.17;;
14377;SDS011;7272;53.668;9.578;2022-07-29T02:55:44;3.03;;;2.10;;
14377;SDS011;7272;53.668;9.578;2022-07-29T02:58:52;2.45;;;2.05;;
14377;SDS011;7272;53.668;9.578;2022-07-29T03:01:57;2.95;;;2.22;;
14377;SDS011;7272;53.668;9.578;2022-07-29T03:05:02;3.57;;;2.23;;
14377;SDS011;7272;53.668;9.578;2022-07-29T03:08:05;4.00;;;2.00;;
14377;SDS011;7272;53.668;9.578;2022-07-29T03:11:10;2.00;;;1.70;;
14377;SDS011;7272;53.668;9.578;2022-07-29T03:14:13;1.40;;;1.30;;
14377;SDS011;7272;53.668;9.578;2022-07-29T03:17:18;2.40;;;1.80;;
14377;SDS011;7272;53.668;9.578;2022-07-29T03:20:20;1.60;;;1.50;;
14377;SDS011;7272;53.668;9.578;2022-07-29T03:23:23;1.90;;;1.80;;
14377;SDS011;7272;53.668;9.578;2022-07-29T03:26:27;1.93;;;1.60;;
14377;SDS011;7272;53.668;9.578;2022-07-29T03:29:30;2.80;;;1.67;;
14377;SDS011;7272;53.668;9.578;2022-07-29T03:32:33;2.07;;;1.70;;
14377;SDS011;7272;53.668;9.578;2022-07-29T03:35:35;1.80;;;1.40;;
14377;SDS011;7272;53.668;9.578;2022-07-29T03:38:38;1.87;;;1.60;;
14377;SDS011;7272;53.668;9.578;2022-07-29T03:41:44;1.70;;;1.60;;
14377;SDS011;7272;53.668;9.578;2022-07-29T03:44:48;1.73;;;1.63;;
14377;SDS011;7272;53.668;9.578;2022-07-29T03:47:55;2.23;;;1.80;;
14377;SDS011;7272;53.668;9.578;2022-07-29T03:51:01;1.43;;;1.33;;
14377;SDS011;7272;53.668;9.578;2022-07-29T03:54:04;2.47;;;2.28;;
14377;SDS011;7272;53.668;9.578;2022-07-29T03:57:07;2.10;;;1.93;;
14377;SDS011;7272;53.668;9.578;2022-07-29T04:00:11;1.70;;;1.60;;
14377;SDS011;7272;53.668;9.578;2022-07-29T04:03:15;1.63;;;1.43;;
14377;SDS011;7272;53.668;9.578;2022-07-29T04:06:17;2.30;;;2.07;;
14377;SDS011;7272;53.668;9.578;2022-07-29T04:09:19;2.73;;;1.97;;
14377;SDS011;7272;53.668;9.578;2022-07-29T04:12:21;2.20;;;2.00;;
14377;SDS011;7272;53.668;9.578;2022-07-29T04:15:23;2.80;;;2.17;;
14377;SDS011;7272;53.668;9.578;2022-07-29T04:18:26;2.80;;;2.58;;
14377;SDS011;7272;53.668;9.578;2022-07-29T04:21:29;2.53;;;2.00;;
14377;SDS011;7272;53.668;9.578;2022-07-29T04:24:30;2.23;;;1.80;;
14377;SDS011;7272;53.668;9.578;2022-07-29T04:27:33;2.63;;;2.10;;
14377;SDS011;7272;53.668;9.578;2022-07-29T04:30:35;2.60;;;2.40;;
14377;SDS011;7272;53.668;9.578;2022-07-29T04:33:39;4.20;;;2.20;;
14377;SDS011;7272;53.668;9.578;2022-07-29T04:36:41;3.27;;;2.17;;
14377;SDS011;7272;53.668;9.578;2022-07-29T04:39:43;3.30;;;2.17;;
14377;SDS011;7272;53.668;9.578;2022-07-29T04:42:45;4.20;;;2.37;;
14377;SDS011;7272;53.668;9.578;2022-07-29T04:45:47;3.37;;;2.90;;
14377;SDS011;7272;53.668;9.578;2022-07-29T04:48:51;3.63;;;3.10;;
14377;SDS011;7272;53.668;9.578;2022-07-29T04:51:53;4.20;;;2.37;;
14377;SDS011;7272;53.668;9.578;2022-07-29T04:54:55;2.97;;;2.13;;
14377;SDS011;7272;53.668;9.578;2022-07-29T04:57:57;3.17;;;2.30;;
14377;SDS011;7272;53.668;9.578;2022-07-29T05:00:59;3.93;;;2.23;;
14377;SDS011;7272;53.668;9.578;2022-07-29T05:04:03;3.37;;;2.10;;
14377;SDS011;7272;53.668;9.578;2022-07-29T05:07:05;3.57;;;2.40;;
14377;SDS011;7272;53.668;9.578;2022-07-29T05:10:07;3.20;;;2.90;;
14377;SDS011;7272;53.668;9.578;2022-07-29T05:13:10;3.65;;;2.65;;
14377;SDS011;7272;53.668;9.578;2022-07-29T05:16:12;2.37;;;2.20;;
14377;SDS011;7272;53.668;9.578;2022-07-29T05:19:15;2.97;;;2.67;;
14377;SDS011;7272;53.668;9.578;2022-07-29T05:22:20;4.33;;;2.30;;
14377;SDS011;7272;53.668;9.578;2022-07-29T05:25:23;3.03;;;2.57;;
14377;SDS011;7272;53.668;9.578;2022-07-29T05:28:25;2.10;;;1.90;;
14377;SDS011;7272;53.668;9.578;2022-07-29T05:31:27;2.20;;;1.80;;
14377;SDS011;7272;53.668;9.578;2022-07-29T05:34:30;3.77;;;2.33;;
14377;SDS011;7272;53.668;9.578;2022-07-29T05:37:33;4.13;;;2.67;;
14377;SDS011;7272;53.668;9.578;2022-07-29T05:40:35;2.65;;;2.45;;
14377;SDS011;7272;53.668;9.578;2022-07-29T05:43:37;2.80;;;2.17;;
14377;SDS011;7272;53.668;9.578;2022-07-29T05:46:39;4.77;;;2.70;;
14377;SDS011;7272;53.668;9.578;2022-07-29T05:49:42;4.00;;;2.40;;
14377;SDS011;7272;53.668;9.578;2022-07-29T05:52:44;2.63;;;2.20;;
14377;SDS011;7272;53.668;9.578;2022-07-29T05:55:46;2.60;;;2.23;;
14377;SDS011;7272;53.668;9.578;2022-07-29T05:58:48;2.60;;;2.20;;
14377;SDS011;7272;53.668;9.578;2022-07-29T06:01:50;2.30;;;2.10;;
14377;SDS011;7272;53.668;9.578;2022-07-29T06:04:54;3.43;;;3.13;;
14377;SDS011;7272;53.668;9.578;2022-07-29T06:07:56;3.90;;;3.50;;
14377;SDS011;7272;53.668;9.578;2022-07-29T06:10:58;5.47;;;4.10;;
14377;SDS011;7272;53.668;9.578;2022-07-29T06:13:59;3.10;;;2.43;;
14377;SDS011;7272;53.668;9.578;2022-07-29T06:17:03;2.97;;;2.70;;
14377;SDS011;7272;53.668;9.578;2022-07-29T06:20:07;6.53;;;5.77;;
14377;SDS011;7272;53.668;9.578;2022-07-29T06:23:10;5.40;;;3.13;;
14377;SDS011;7272;53.668;9.578;2022-07-29T06:26:12;3.03;;;2.73;;
14377;SDS011;7272;53.668;9.578;2022-07-29T06:29:14;6.43;;;4.10;;
14377;SDS011;7272;53.668;9.578;2022-07-29T06:32:16;3.43;;;3.00;;
14377;SDS011;7272;53.668;9.578;2022-07-29T06:35:20;3.33;;;2.57;;
14377;SDS011;7272;53.668;9.578;2022-07-29T06:38:22;3.13;;;2.40;;
14377;SDS011;7272;53.668;9.578;2022-07-29T06:41:24;2.53;;;2.07;;
14377;SDS011;7272;53.668;9.578;2022-07-29T06:44:26;4.20;;;2.47;;
14377;SDS011;7272;53.668;9.578;2022-07-29T06:47:28;3.17;;;2.30;;
14377;SDS011;7272;53.668;9.578;2022-07-29T06:50:31;4.40;;;2.20;;
14377;SDS011;7272;53.668;9.578;2022-07-29T06:53:34;3.45;;;2.90;;
14377;SDS011;7272;53.668;9.578;2022-07-29T06:56:36;3.47;;;2.88;;
14377;SDS011;7272;53.668;9.578;2022-07-29T06:59:41;2.87;;;2.47;;
14377;SDS011;7272;53.668;9.578;2022-07-29T07:02:43;3.70;;;2.40;;
14377;SDS011;7272;53.668;9.578;2022-07-29T07:05:46;3.57;;;3.17;;
14377;SDS011;7272;53.668;9.578;2022-07-29T07:08:48;3.47;;;2.30;;
14377;SDS011;7272;53.668;9.578;2022-07-29T07:11:50;6.00;;;5.40;;
14377;SDS011;7272;53.668;9.578;2022-07-29T07:14:52;3.07;;;2.77;;
14377;SDS011;7272;53.668;9.578;2022-07-29T07:17:54;3.33;;;2.20;;
14377;SDS011;7272;53.668;9.578;2022-07-29T07:21:00;3.60;;;2.00;;
14377;SDS011;7272;53.668;9.578;2022-07-29T07:24:02;3.00;;;2.58;;
14377;SDS011;7272;53.668;9.578;2022-07-29T07:27:05;4.93;;;2.73;;
14377;SDS011;7272;53.668;9.578;2022-07-29T07:30:07;3.07;;;2.73;;
14377;SDS011;7272;53.668;9.578;2022-07-29T07:33:09;3.77;;;2.10;;
14377;SDS011;7272;53.668;9.578;2022-07-29T07:36:12;2.17;;;1.80;;
14377;SDS011;7272;53.668;9.578;2022-07-29T07:39:14;2.43;;;2.23;;
14377;SDS011;7272;53.668;9.578;2022-07-29T07:42:16;2.97;;;1.87;;
14377;SDS011;7272;53.668;9.578;2022-07-29T07:45:19;4.10;;;2.53;;
14377;SDS011;7272;53.668;9.578;2022-07-29T07:48:21;2.73;;;2.40;;
14377;SDS011;7272;53.668;9.578;2022-07-29T07:51:24;3.43;;;2.10;;
14377;SDS011;7272;53.668;9.578;2022-07-29T07:54:27;3.63;;;2.07;;
14377;SDS011;7272;53.668;9.578;2022-07-29T07:57:29;2.63;;;2.20;;
14377;SDS011;7272;53.668;9.578;2022-07-29T08:00:31;5.10;;;2.33;;
14377;SDS011;7272;53.668;9.578;2022-07-29T08:03:33;2.53;;;1.83;;
14377;SDS011;7272;53.668;9.578;2022-07-29T08:06:36;2.47;;;2.27;;
14377;SDS011;7272;53.668;9.578;2022-07-29T08:09:38;3.70;;;2.40;;
14377;SDS011;7272;53.668;9.578;2022-07-29T08:12:40;3.20;;;1.73;;
14377;SDS011;7272;53.668;9.578;2022-07-29T08:15:42;3.07;;;2.07;;
14377;SDS011;7272;53.668;9.578;2022-07-29T08:18:46;3.67;;;2.07;;
14377;SDS011;7272;53.668;9.578;2022-07-29T08:21:49;2.70;;;2.20;;
14377;SDS011;7272;53.668;9.578;2022-07-29T08:24:52;3.13;;;2.10;;
14377;SDS011;7272;53.668;9.578;2022-07-29T08:27:55;3.47;;;2.50;;
14377;SDS011;7272;53.668;9.578;2022-07-29T08:30:57;3.53;;;2.53;;
14377;SDS011;7272;53.668;9.578;2022-07-29T08:34:00;3.20;;;2.53;;
14377;SDS011;7272;53.668;9.578;2022-07-29T08:37:04;2.50;;;2.27;;
14377;SDS011;7272;53.668;9.578;2022-07-29T08:40:06;3.00;;;2.30;;
14377;SDS011;7272;53.668;9.578;2022-07-29T08:43:08;2.40;;;1.97;;
14377;SDS011;7272;53.668;9.578;2022-07-29T08:46:10;3.57;;;2.20;;
14377;SDS011;7272;53.668;9.578;2022-07-29T08:49:12;5.40;;;2.73;;
14377;SDS011;7272;53.668;9.578;2022-07-29T08:52:16;3.05;;;2.70;;
14377;SDS011;7272;53.668;9.578;2022-07-29T08:55:19;3.15;;;2.80;;
14377;SDS011;7272;53.668;9.578;2022-07-29T08:58:21;2.93;;;2.10;;
14377;SDS011;7272;53.668;9.578;2022-07-29T09:01:25;3.33;;;2.40;;
14377;SDS011;7272;53.668;9.578;2022-07-29T09:04:31;2.70;;;2.37;;
14377;SDS011;7272;53.668;9.578;2022-07-29T09:07:37;2.27;;;2.10;;
14377;SDS011;7272;53.668;9.578;2022-07-29T09:10:42;2.63;;;2.17;;
14377;SDS011;7272;53.668;9.578;2022-07-29T09:13:45;2.75;;;2.42;;
14377;SDS011;7272;53.668;9.578;2022-07-29T09:16:52;2.97;;;2.67;;
14377;SDS011;7272;53.668;9.578;2022-07-29T09:19:56;2.13;;;1.93;;
14377;SDS011;7272;53.668;9.578;2022-07-29T09:23:12;3.87;;;2.00;;
14377;SDS011;7272;53.668;9.578;2022-07-29T09:26:14;2.30;;;2.10;;
14377;SDS011;7272;53.668;9.578;2022-07-29T09:29:17;3.23;;;2.17;;
14377;SDS011;7272;53.668;9.578;2022-07-29T09:32:21;4.23;;;2.40;;
14377;SDS011;7272;53.668;9.578;2022-07-29T09:35:23;4.30;;;2.75;;
14377;SDS011;7272;53.668;9.578;2022-07-29T09:38:28;4.53;;;2.20;;
14377;SDS011;7272;53.668;9.578;2022-07-29T09:41:43;2.93;;;2.30;;
14377;SDS011;7272;53.668;9.578;2022-07-29T09:44:50;3.20;;;2.23;;
14377;SDS011;7272;53.668;9.578;2022-07-29T09:47:52;2.60;;;2.10;;
14377;SDS011;7272;53.668;9.578;2022-07-29T09:50:54;3.20;;;2.13;;
14377;SDS011;7272;53.668;9.578;2022-07-29T09:53:59;1.90;;;1.80;;
14377;SDS011;7272;53.668;9.578;2022-07-29T09:57:04;2.80;;;2.00;;
14377;SDS011;7272;53.668;9.578;2022-07-29T10:00:09;3.73;;;2.27;;
14377;SDS011;7272;53.668;9.578;2022-07-29T10:03:13;1.73;;;1.63;;
14377;SDS011;7272;53.668;9.578;2022-07-29T10:06:15;2.20;;;2.00;;
14377;SDS011;7272;53.668;9.578;2022-07-29T10:09:19;2.67;;;2.20;;
14377;SDS011;7272;53.668;9.578;2022-07-29T10:12:21;3.53;;;2.13;;
14377;SDS011;7272;53.668;9.578;2022-07-29T10:15:26;3.65;;;2.70;;
14377;SDS011;7272;53.668;9.578;2022-07-29T10:18:29;2.40;;;2.10;;
14377;SDS011;7272;53.668;9.578;2022-07-29T10:21:34;2.77;;;1.97;;
14377;SDS011;7272;53.668;9.578;2022-07-29T10:24:39;3.07;;;2.20;;
14377;SDS011;7272;53.668;9.578;2022-07-29T10:27:41;2.30;;;2.10;;
14377;SDS011;7272;53.668;9.578;2022-07-29T10:30:46;2.70;;;2.10;;
14377;SDS011;7272;53.668;9.578;2022-07-29T10:33:51;2.38;;;2.17;;
14377;SDS011;7272;53.668;9.578;2022-07-29T10:37:07;2.80;;;2.17;;
14377;SDS011;7272;53.668;9.578;2022-07-29T10:40:23;2.20;;;2.00;;
14377;SDS011;7272;53.668;9.578;2022-07-29T10:43:53;1.97;;;1.70;;
14377;SDS011;7272;53.668;9.578;2022-07-29T10:46:57;3.80;;;1.70;;
14377;SDS011;7272;53.668;9.578;2022-07-29T10:50:04;3.07;;;1.87;;
14377;SDS011;7272;53.668;9.578;2022-07-29T10:53:08;2.60;;;2.03;;
14377;SDS011;7272;53.668;9.578;2022-07-29T10:56:23;2.30;;;1.83;;
14377;SDS011;7272;53.668;9.578;2022-07-29T10:59:27;2.80;;;2.00;;
14377;SDS011;7272;53.668;9.578;2022-07-29T11:02:40;2.30;;;1.60;;
14377;SDS011;7272;53.668;9.578;2022-07-29T11:05:54;2.43;;;1.90;;
14377;SDS011;7272;53.668;9.578;2022-07-29T11:09:16;3.05;;;2.00;;
14377;SDS011;7272;53.668;9.578;2022-07-29T11:15:52;2.93;;;1.43;;
14377;SDS011;7272;53.668;9.578;2022-07-29T11:22:32;3.40;;;1.75;;
14377;SDS011;7272;53.668;9.578;2022-07-29T11:25:35;2.50;;;1.80;;
14377;SDS011;7272;53.668;9.578;2022-07-29T11:28:39;4.43;;;1.63;;
14377;SDS011;7272;53.668;9.578;2022-07-29T11:31:51;2.30;;;1.80;;
14377;SDS011;7272;53.668;9.578;2022-07-29T11:35:12;1.73;;;1.50;;
14377;SDS011;7272;53.668;9.578;2022-07-29T11:38:25;2.53;;;1.73;;
14377;SDS011;7272;53.668;9.578;2022-07-29T11:41:27;2.70;;;1.90;;
14377;SDS011;7272;53.668;9.578;2022-07-29T11:47:58;1.55;;;1.45;;
14377;SDS011;7272;53.668;9.578;2022-07-29T11:51:01;3.30;;;1.45;;
14377;SDS011;7272;53.668;9.578;2022-07-29T11:54:14;1.40;;;1.30;;
14377;SDS011;7272;53.668;9.578;2022-07-29T11:57:23;2.28;;;1.17;;
14377;SDS011;7272;53.668;9.578;2022-07-29T12:00:29;3.05;;;1.85;;
14377;SDS011;7272;53.668;9.578;2022-07-29T12:03:32;2.22;;;1.83;;
14377;SDS011;7272;53.668;9.578;2022-07-29T12:06:35;3.58;;;1.73;;
14377;SDS011;7272;53.668;9.578;2022-07-29T12:09:37;2.55;;;1.50;;
14377;SDS011;7272;53.668;9.578;2022-07-29T12:12:39;2.28;;;1.48;;
14377;SDS011;7272;53.668;9.578;2022-07-29T12:15:42;1.87;;;1.43;;
14377;SDS011;7272;53.668;9.578;2022-07-29T12:18:57;3.75;;;1.60;;
14377;SDS011;7272;53.668;9.578;2022-07-29T12:21:59;2.25;;;1.45;;
14377;SDS011;7272;53.668;9.578;2022-07-29T12:25:03;2.03;;;1.40;;
14377;SDS011;7272;53.668;9.578;2022-07-29T12:28:08;3.05;;;1.50;;
14377;SDS011;7272;53.668;9.578;2022-07-29T12:31:17;2.40;;;1.60;;
14377;SDS011;7272;53.668;9.578;2022-07-29T12:34:20;2.13;;;1.60;;
14377;SDS011;7272;53.668;9.578;2022-07-29T12:37:24;2.20;;;1.52;;
14377;SDS011;7272;53.668;9.578;2022-07-29T12:40:26;2.15;;;1.33;;
14377;SDS011;7272;53.668;9.578;2022-07-29T12:43:28;1.95;;;1.30;;
14377;SDS011;7272;53.668;9.578;2022-07-29T12:46:32;1.95;;;1.58;;
14377;SDS011;7272;53.668;9.578;2022-07-29T12:49:34;2.17;;;1.50;;
14377;SDS011;7272;53.668;9.578;2022-07-29T12:52:36;3.25;;;1.60;;
14377;SDS011;7272;53.668;9.578;2022-07-29T12:55:39;1.85;;;1.20;;
14377;SDS011;7272;53.668;9.578;2022-07-29T12:58:44;1.50;;;1.40;;
14377;SDS011;7272;53.668;9.578;2022-07-29T13:01:48;1.83;;;1.40;;
14377;SDS011;7272;53.668;9.578;2022-07-29T13:04:55;2.77;;;1.70;;
14377;SDS011;7272;53.668;9.578;2022-07-29T13:08:09;3.42;;;1.73;;
14377;SDS011;7272;53.668;9.578;2022-07-29T13:11:26;1.73;;;1.50;;
14377;SDS011;7272;53.668;9.578;2022-07-29T13:14:30;2.55;;;1.63;;
14377;SDS011;7272;53.668;9.578;2022-07-29T13:17:34;2.17;;;1.50;;
14377;SDS011;7272;53.668;9.578;2022-07-29T13:20:42;2.50;;;1.40;;
14377;SDS011;7272;53.668;9.578;2022-07-29T13:23:44;1.70;;;1.37;;
14377;SDS011;7272;53.668;9.578;2022-07-29T13:26:46;2.45;;;1.40;;
14377;SDS011;7272;53.668;9.578;2022-07-29T13:29:48;2.70;;;1.80;;
14377;SDS011;7272;53.668;9.578;2022-07-29T13:32:53;2.42;;;1.63;;
14377;SDS011;7272;53.668;9.578;2022-07-29T13:35:56;1.92;;;1.45;;
14377;SDS011;7272;53.668;9.578;2022-07-29T13:38:58;2.45;;;1.42;;
14377;SDS011;7272;53.668;9.578;2022-07-29T13:42:01;3.17;;;1.50;;
14377;SDS011;7272;53.668;9.578;2022-07-29T13:45:03;4.47;;;1.70;;
14377;SDS011;7272;53.668;9.578;2022-07-29T13:48:08;2.08;;;1.63;;
14377;SDS011;7272;53.668;9.578;2022-07-29T13:51:11;2.20;;;1.60;;
14377;SDS011;7272;53.668;9.578;2022-07-29T13:54:13;3.35;;;1.63;;
14377;SDS011;7272;53.668;9.578;2022-07-29T13:57:15;2.05;;;1.40;;
14377;SDS011;7272;53.668;9.578;2022-07-29T14:00:19;2.03;;;1.50;;
14377;SDS011;7272;53.668;9.578;2022-07-29T14:03:22;2.97;;;1.70;;
14377;SDS011;7272;53.668;9.578;2022-07-29T14:06:25;3.67;;;1.60;;
14377;SDS011;7272;53.668;9.578;2022-07-29T14:09:27;2.78;;;1.65;;
14377;SDS011;7272;53.668;9.578;2022-07-29T14:12:28;2.70;;;1.75;;
14377;SDS011;7272;53.668;9.578;2022-07-29T14:15:30;3.03;;;1.60;;
14377;SDS011;7272;53.668;9.578;2022-07-29T14:18:34;3.35;;;1.70;;
14377;SDS011;7272;53.668;9.578;2022-07-29T14:21:36;4.18;;;1.60;;
14377;SDS011;7272;53.668;9.578;2022-07-29T14:24:38;3.80;;;1.70;;
14377;SDS011;7272;53.668;9.578;2022-07-29T14:27:40;3.95;;;1.73;;
14377;SDS011;7272;53.668;9.578;2022-07-29T14:30:43;3.83;;;1.80;;
14377;SDS011;7272;53.668;9.578;2022-07-29T14:33:47;3.80;;;1.70;;
14377;SDS011;7272;53.668;9.578;2022-07-29T14:36:48;3.40;;;1.98;;
14377;SDS011;7272;53.668;9.578;2022-07-29T14:39:55;3.40;;;1.88;;
14377;SDS011;7272;53.668;9.578;2022-07-29T14:42:59;2.30;;;1.80;;
14377;SDS011;7272;53.668;9.578;2022-07-29T14:46:01;4.57;;;1.88;;
14377;SDS011;7272;53.668;9.578;2022-07-29T14:49:05;2.63;;;1.88;;
14377;SDS011;7272;53.668;9.578;2022-07-29T14:52:07;3.58;;;1.90;;
14377;SDS011;7272;53.668;9.578;2022-07-29T14:55:09;5.03;;;2.20;;
14377;SDS011;7272;53.668;9.578;2022-07-29T14:58:11;2.60;;;1.40;;
14377;SDS011;7272;53.668;9.578;2022-07-29T15:01:14;3.30;;;2.00;;
14377;SDS011;7272;53.668;9.578;2022-07-29T15:04:17;2.92;;;1.80;;
14377;SDS011;7272;53.668;9.578;2022-07-29T15:07:20;3.40;;;1.92;;
14377;SDS011;7272;53.668;9.578;2022-07-29T15:10:22;2.72;;;1.92;;
14377;SDS011;7272;53.668;9.578;2022-07-29T15:13:24;4.25;;;2.10;;
14377;SDS011;7272;53.668;9.578;2022-07-29T15:16:26;3.33;;;1.83;;
14377;SDS011;7272;53.668;9.578;2022-07-29T15:19:30;3.38;;;1.90;;
14377;SDS011;7272;53.668;9.578;2022-07-29T15:22:33;2.72;;;1.77;;
14377;SDS011;7272;53.668;9.578;2022-07-29T15:25:35;1.70;;;1.60;;
14377;SDS011;7272;53.668;9.578;2022-07-29T15:28:37;3.95;;;2.03;;
14377;SDS011;7272;53.668;9.578;2022-07-29T15:31:39;3.28;;;2.00;;
14377;SDS011;7272;53.668;9.578;2022-07-29T15:34:42;3.80;;;2.10;;
14377;SDS011;7272;53.668;9.578;2022-07-29T15:37:44;3.30;;;2.05;;
14377;SDS011;7272;53.668;9.578;2022-07-29T15:40:46;4.82;;;1.92;;
14377;SDS011;7272;53.668;9.578;2022-07-29T15:43:48;4.00;;;1.73;;
14377;SDS011;7272;53.668;9.578;2022-07-29T15:46:51;2.75;;;1.90;;
14377;SDS011;7272;53.668;9.578;2022-07-29T15:50:07;2.58;;;1.80;;
14377;SDS011;7272;53.668;9.578;2022-07-29T15:53:14;2.90;;;1.85;;
14377;SDS011;7272;53.668;9.578;2022-07-29T15:56:16;2.30;;;1.67;;
14377;SDS011;7272;53.668;9.578;2022-07-29T15:59:18;2.67;;;1.80;;
14377;SDS011;7272;53.668;9.578;2022-07-29T16:02:21;2.78;;;1.48;;
14377;SDS011;7272;53.668;9.578;2022-07-29T16:05:24;4.07;;;1.70;;
14377;SDS011;7272;53.668;9.578;2022-07-29T16:08:28;2.63;;;1.77;;
14377;SDS011;7272;53.668;9.578;2022-07-29T16:11:30;2.47;;;1.73;;
14377;SDS011;7272;53.668;9.578;2022-07-29T16:14:32;3.30;;;2.00;;
14377;SDS011;7272;53.668;9.578;2022-07-29T16:17:34;2.47;;;1.80;;
14377;SDS011;7272;53.668;9.578;2022-07-29T16:20:38;3.60;;;2.30;;
14377;SDS011;7272;53.668;9.578;2022-07-29T16:23:40;3.00;;;2.25;;
14377;SDS011;7272;53.668;9.578;2022-07-29T16:26:43;2.25;;;1.77;;
14377;SDS011;7272;53.668;9.578;2022-07-29T16:29:45;2.38;;;1.70;;
14377;SDS011;7272;53.668;9.578;2022-07-29T16:32:49;3.00;;;1.60;;
14377;SDS011;7272;53.668;9.578;2022-07-29T16:35:52;3.00;;;1.80;;
14377;SDS011;7272;53.668;9.578;2022-07-29T16:38:57;3.17;;;1.80;;
14377;SDS011;7272;53.668;9.578;2022-07-29T16:41:59;1.70;;;1.60;;
14377;SDS011;7272;53.668;9.578;2022-07-29T16:45:02;2.70;;;1.88;;
14377;SDS011;7272;53.668;9.578;2022-07-29T16:48:04;2.67;;;1.77;;
14377;SDS011;7272;53.668;9.578;2022-07-29T16:51:08;3.33;;;1.63;;
14377;SDS011;7272;53.668;9.578;2022-07-29T16:54:10;2.20;;;1.63;;
14377;SDS011;7272;53.668;9.578;2022-07-29T16:57:12;3.30;;;1.60;;
14377;SDS011;7272;53.668;9.578;2022-07-29T17:00:15;3.47;;;2.00;;
14377;SDS011;7272;53.668;9.578;2022-07-29T17:03:17;1.60;;;1.50;;
14377;SDS011;7272;53.668;9.578;2022-07-29T17:06:21;2.63;;;1.70;;
14377;SDS011;7272;53.668;9.578;2022-07-29T17:09:23;2.47;;;1.50;;
14377;SDS011;7272;53.668;9.578;2022-07-29T17:12:25;1.70;;;1.60;;
14377;SDS011;7272;53.668;9.578;2022-07-29T17:15:27;3.37;;;1.80;;
14377;SDS011;7272;53.668;9.578;2022-07-29T17:18:29;2.23;;;1.50;;
14377;SDS011;7272;53.668;9.578;2022-07-29T17:21:32;2.03;;;1.40;;
14377;SDS011;7272;53.668;9.578;2022-07-29T17:24:34;2.45;;;1.80;;
14377;SDS011;7272;53.668;9.578;2022-07-29T17:27:36;4.43;;;1.80;;
14377;SDS011;7272;53.668;9.578;2022-07-29T17:30:38;2.67;;;1.50;;
14377;SDS011;7272;53.668;9.578;2022-07-29T17:33:40;2.03;;;1.67;;
14377;SDS011;7272;53.668;9.578;2022-07-29T17:36:46;2.33;;;1.70;;
14377;SDS011;7272;53.668;9.578;2022-07-29T17:39:48;1.90;;;1.70;;
14377;SDS011;7272;53.668;9.578;2022-07-29T17:42:50;1.70;;;1.60;;
14377;SDS011;7272;53.668;9.578;2022-07-29T17:45:52;3.67;;;1.83;;
14377;SDS011;7272;53.668;9.578;2022-07-29T17:48:54;2.83;;;1.60;;
14377;SDS011;7272;53.668;9.578;2022-07-29T17:51:58;1.87;;;1.73;;
14377;SDS011;7272;53.668;9.578;2022-07-29T17:55:00;2.77;;;1.83;;
14377;SDS011;7272;53.668;9.578;2022-07-29T17:58:03;2.50;;;1.63;;
14377;SDS011;7272;53.668;9.578;2022-07-29T18:01:05;2.47;;;1.70;;
14377;SDS011;7272;53.668;9.578;2022-07-29T18:04:07;3.63;;;1.87;;
14377;SDS011;7272;53.668;9.578;2022-07-29T18:07:11;3.00;;;2.03;;
14377;SDS011;7272;53.668;9.578;2022-07-29T18:10:13;1.63;;;1.50;;
14377;SDS011;7272;53.668;9.578;2022-07-29T18:13:16;2.20;;;1.43;;
14377;SDS011;7272;53.668;9.578;2022-07-29T18:16:19;2.33;;;1.60;;
14377;SDS011;7272;53.668;9.578;2022-07-29T18:19:21;2.83;;;1.80;;
14377;SDS011;7272;53.668;9.578;2022-07-29T18:22:24;4.20;;;1.88;;
14377;SDS011;7272;53.668;9.578;2022-07-29T18:25:26;3.20;;;1.40;;
14377;SDS011;7272;53.668;9.578;2022-07-29T18:28:28;3.17;;;1.57;;
14377;SDS011;7272;53.668;9.578;2022-07-29T18:31:31;3.83;;;1.60;;
14377;SDS011;7272;53.668;9.578;2022-07-29T18:34:33;3.93;;;1.57;;
14377;SDS011;7272;53.668;9.578;2022-07-29T18:37:37;2.95;;;2.00;;
14377;SDS011;7272;53.668;9.578;2022-07-29T18:40:39;3.38;;;1.95;;
14377;SDS011;7272;53.668;9.578;2022-07-29T18:43:42;2.10;;;1.90;;
14377;SDS011;7272;53.668;9.578;2022-07-29T18:46:44;3.33;;;1.77;;
14377;SDS011;7272;53.668;9.578;2022-07-29T18:49:46;2.30;;;1.70;;
14377;SDS011;7272;53.668;9.578;2022-07-29T18:52:50;2.87;;;1.80;;
14377;SDS011;7272;53.668;9.578;2022-07-29T18:55:54;3.53;;;1.80;;
14377;SDS011;7272;53.668;9.578;2022-07-29T18:58:56;2.92;;;2.20;;